createdAt,value
2022-10-05T00:00:11.979Z,101109.30078125
2022-10-05T00:01:14.949Z,101104.9765625
2022-10-05T00:02:12.064Z,101103.67578125
2022-10-05T00:03:12.384Z,101101.03515625
2022-10-05T00:04:12.116Z,101098.67578125
2022-10-05T00:05:11.989Z,101099.56640625
2022-10-05T00:06:11.920Z,101097.15625
2022-10-05T00:07:11.921Z,101095.5078125
2022-10-05T00:08:12.338Z,101093.65234375
2022-10-05T00:09:12.270Z,101092.8359375
2022-10-05T00:10:12.119Z,101094.5234375
2022-10-05T00:11:11.958Z,101092.0859375
2022-10-05T00:12:14.925Z,101089.12890625
2022-10-05T00:13:12.280Z,101088.1640625
2022-10-05T00:14:12.030Z,101082.74609375
2022-10-05T00:15:11.927Z,101084.328125
2022-10-05T00:16:12.024Z,101078.5859375
2022-10-05T00:17:11.917Z,101079.234375
2022-10-05T00:18:12.266Z,101079.83203125
2022-10-05T00:19:11.948Z,101074.26171875
2022-10-05T00:20:11.900Z,101076.04296875
2022-10-05T00:21:14.206Z,101073.32421875
2022-10-05T00:22:12.103Z,101070.2890625
2022-10-05T00:23:17.970Z,101071.6484375
2022-10-05T00:24:12.270Z,101064.9921875
2022-10-05T00:25:12.023Z,101065.43359375
2022-10-05T00:26:11.895Z,101062.5
2022-10-05T00:27:11.917Z,101059.61328125
2022-10-05T00:28:12.393Z,101062.6640625
2022-10-05T00:29:11.895Z,101060.75
2022-10-05T00:30:11.981Z,101060.796875
2022-10-05T00:31:12.063Z,101060.734375
2022-10-05T00:32:11.940Z,101058.80859375
2022-10-05T00:33:12.342Z,101061.4765625
2022-10-05T00:34:14.959Z,101063.44921875
2022-10-05T00:35:12.129Z,101063.5546875
2022-10-05T00:36:12.118Z,101066.59765625
2022-10-05T00:37:12.077Z,101065.01953125
2022-10-05T00:38:12.342Z,101063.77734375
2022-10-05T00:39:12.269Z,101064.734375
2022-10-05T00:40:12.015Z,101070.23046875
2022-10-05T00:41:11.973Z,101068.921875
2022-10-05T00:42:12.039Z,101068.28125
2022-10-05T00:43:12.385Z,101069.26953125
2022-10-05T00:44:12.078Z,101068.515625
2022-10-05T00:45:15.065Z,101067.53515625
2022-10-05T00:46:12.169Z,101064.796875
2022-10-05T00:47:12.041Z,101064.5234375
2022-10-05T00:48:12.271Z,101058.26171875
2022-10-05T00:49:11.991Z,101058.52734375
2022-10-05T00:50:11.922Z,101049.140625
2022-10-05T00:51:12.023Z,101048.87890625
2022-10-05T00:52:11.899Z,101047.32421875
2022-10-05T00:53:12.358Z,101047.00390625
2022-10-05T00:54:15.950Z,101045.25
2022-10-05T00:55:12.116Z,101041.8046875
2022-10-05T00:56:15.062Z,101043.234375
2022-10-05T00:57:12.093Z,101043.84375
2022-10-05T00:58:12.340Z,101047.4375
2022-10-05T00:59:12.048Z,101045.8515625
2022-10-05T01:00:11.928Z,101044.4140625
2022-10-05T01:01:11.963Z,101041.94921875
2022-10-05T01:02:12.109Z,101046.65234375
2022-10-05T01:03:12.339Z,101045.0859375
2022-10-05T01:04:12.113Z,101045.2890625
2022-10-05T01:05:12.089Z,101048.84765625
2022-10-05T01:06:12.131Z,101049.16796875
2022-10-05T01:07:15.046Z,101050.00390625
2022-10-05T01:08:12.287Z,101049.26953125
2022-10-05T01:09:12.377Z,101052.1484375
2022-10-05T01:10:11.975Z,101050.84375
2022-10-05T01:11:11.908Z,101052.6796875
2022-10-05T01:12:11.920Z,101048.37890625
2022-10-05T01:13:12.378Z,101045.36328125
2022-10-05T01:14:11.897Z,101046.61328125
2022-10-05T01:15:11.903Z,101043.8984375
2022-10-05T01:16:11.977Z,101044.8359375
2022-10-05T01:17:12.047Z,101048.9921875
2022-10-05T01:18:18.253Z,101048.78125
2022-10-05T01:19:12.079Z,101045.4453125
2022-10-05T01:20:11.922Z,101045.3828125
2022-10-05T01:21:11.894Z,101045.9296875
2022-10-05T01:22:12.045Z,101042.4921875
2022-10-05T01:23:12.308Z,101041.23046875
2022-10-05T01:24:12.273Z,101039.54296875
2022-10-05T01:25:11.999Z,101044.1328125
2022-10-05T01:26:12.047Z,101041.9453125
2022-10-05T01:27:12.065Z,101043.6953125
2022-10-05T01:28:12.405Z,101045.48828125
2022-10-05T01:29:14.944Z,101046.14453125
2022-10-05T01:30:12.125Z,101044.0625
2022-10-05T01:31:12.206Z,101047.71484375
2022-10-05T01:32:11.974Z,101050.67578125
2022-10-05T01:33:12.345Z,101050.94921875
2022-10-05T01:34:12.068Z,101051.984375
2022-10-05T01:35:11.907Z,101054.42578125
2022-10-05T01:36:11.899Z,101054.609375
2022-10-05T01:37:12.066Z,101055.1484375
2022-10-05T01:38:12.272Z,101052.953125
2022-10-05T01:39:12.281Z,101050.9921875
2022-10-05T01:40:15.034Z,101055.85546875
2022-10-05T01:41:12.091Z,101049.578125
2022-10-05T01:42:12.015Z,101053.765625
2022-10-05T01:43:12.272Z,101055.83984375
2022-10-05T01:44:11.995Z,101053.4296875
2022-10-05T01:45:11.977Z,101054.73046875
2022-10-05T01:46:12.020Z,101055.26953125
2022-10-05T01:47:11.913Z,101052.79296875
2022-10-05T01:48:12.349Z,101051.4375
2022-10-05T01:49:12.086Z,101053.13671875
2022-10-05T01:50:12.117Z,101051.76171875
2022-10-05T01:51:15.049Z,101047.5703125
2022-10-05T01:52:12.002Z,101049.09765625
2022-10-05T01:53:12.343Z,101048.05078125
2022-10-05T01:54:12.279Z,101045.9453125
2022-10-05T01:55:11.999Z,101047.921875
2022-10-05T01:56:11.911Z,101045.67578125
2022-10-05T01:57:11.912Z,101046.28125
2022-10-05T01:58:12.379Z,101043.1796875
2022-10-05T01:59:12.128Z,101039.15625
2022-10-05T02:00:11.993Z,101037.609375
2022-10-05T02:01:12.117Z,101034.32421875
2022-10-05T02:02:15.084Z,101033.71484375
2022-10-05T02:03:12.268Z,101036.9375
2022-10-05T02:04:17.668Z,101032.18359375
2022-10-05T02:05:12.139Z,101034.51953125
2022-10-05T02:06:12.093Z,101030.65625
2022-10-05T02:07:12.065Z,101028.2734375
2022-10-05T02:08:12.556Z,101025.9609375
2022-10-05T02:09:12.395Z,101022.796875
2022-10-05T02:10:12.007Z,101017.4453125
2022-10-05T02:11:11.917Z,101015.4296875
2022-10-05T02:12:11.904Z,101014.55859375
2022-10-05T02:13:14.916Z,101008.10546875
2022-10-05T02:14:12.131Z,101008.83203125
2022-10-05T02:15:11.953Z,101006.98046875
2022-10-05T02:16:11.978Z,101008.7734375
2022-10-05T02:17:12.031Z,101007.875
2022-10-05T02:18:12.272Z,101007.00390625
2022-10-05T02:19:11.921Z,101004.91796875
2022-10-05T02:20:11.979Z,101002.015625
2022-10-05T02:21:11.927Z,101004.5
2022-10-05T02:22:12.041Z,101006.359375
2022-10-05T02:23:12.315Z,101005.4765625
2022-10-05T02:24:18.003Z,101004.25390625
2022-10-05T02:25:11.983Z,101004.20703125
2022-10-05T02:26:11.928Z,101001.8828125
2022-10-05T02:27:12.019Z,101003.703125
2022-10-05T02:28:12.320Z,100999.8203125
2022-10-05T02:29:12.053Z,101001.62109375
2022-10-05T02:30:16.354Z,101000.78125
2022-10-05T02:31:12.088Z,100999.20703125
2022-10-05T02:32:11.895Z,100998.6328125
2022-10-05T02:33:12.342Z,100996.28515625
2022-10-05T02:34:11.980Z,100993.5859375
2022-10-05T02:35:14.953Z,100993.390625
2022-10-05T02:36:11.986Z,100995.22265625
2022-10-05T02:37:11.998Z,100992.2734375
2022-10-05T02:38:12.277Z,100992.83984375
2022-10-05T02:39:12.264Z,100989.9296875
2022-10-05T02:40:12.074Z,100988.734375
2022-10-05T02:41:12.007Z,100987.33984375
2022-10-05T02:42:12.021Z,100985.76171875
2022-10-05T02:43:12.266Z,100983.56640625
2022-10-05T02:44:12.016Z,100981.1640625
2022-10-05T02:45:11.977Z,100978.71484375
2022-10-05T02:46:14.942Z,100977.1640625
2022-10-05T02:47:12.108Z,100979.4453125
2022-10-05T02:48:12.339Z,100975.1484375
2022-10-05T02:49:12.092Z,100973.1171875
2022-10-05T02:50:12.027Z,100973.24609375
2022-10-05T02:51:12.095Z,100971.2265625
2022-10-05T02:52:12.062Z,100972.5390625
2022-10-05T02:53:12.345Z,100973.38671875
2022-10-05T02:54:12.276Z,100974.41796875
2022-10-05T02:55:12.013Z,100972.87109375
2022-10-05T02:56:11.914Z,100970.6328125
2022-10-05T02:57:14.930Z,100970.03125
2022-10-05T02:58:12.275Z,100970.15625
2022-10-05T02:59:12.016Z,100968.75
2022-10-05T03:00:11.977Z,100968.6328125
2022-10-05T03:01:12.100Z,100974.203125
2022-10-05T03:02:12.164Z,100972.44921875
2022-10-05T03:03:12.025Z,100974.30859375
2022-10-05T03:04:13.124Z,100975.3984375
2022-10-05T03:05:11.983Z,100980.6171875
2022-10-05T03:06:11.980Z,100979.62890625
2022-10-05T03:07:12.051Z,100983.69921875
2022-10-05T03:08:18.004Z,100987.5078125
2022-10-05T03:09:12.322Z,100992.2109375
2022-10-05T03:10:12.002Z,100991.6171875
2022-10-05T03:11:12.027Z,100992.9296875
2022-10-05T03:12:12.126Z,100991.94921875
2022-10-05T03:13:12.266Z,100996.4765625
2022-10-05T03:14:11.902Z,100994.55859375
2022-10-05T03:15:11.976Z,100995.875
2022-10-05T03:16:12.099Z,100996.33203125
2022-10-05T03:17:12.020Z,100996.609375
2022-10-05T03:18:12.108Z,101001.03125
2022-10-05T03:19:14.958Z,101002.69921875
2022-10-05T03:20:11.988Z,100998.94921875
2022-10-05T03:21:11.922Z,100999.11328125
2022-10-05T03:22:11.916Z,100996.12109375
2022-10-05T03:23:12.347Z,100992.5546875
2022-10-05T03:24:12.275Z,100994.47265625
2022-10-05T03:25:12.056Z,100990.3984375
2022-10-05T03:26:11.997Z,100994.375
2022-10-05T03:27:12.022Z,100993.65625
2022-10-05T03:28:12.406Z,100993.5625
2022-10-05T03:29:11.976Z,100995.75390625
2022-10-05T03:30:14.974Z,100995.09375
2022-10-05T03:31:12.177Z,100995.046875
2022-10-05T03:32:12.008Z,100993.8984375
2022-10-05T03:33:12.335Z,100995.8671875
2022-10-05T03:34:12.273Z,100996.96875
2022-10-05T03:35:12.133Z,101000.046875
2022-10-05T03:36:12.013Z,100999.71484375
2022-10-05T03:37:12.015Z,100996.01171875
2022-10-05T03:38:12.450Z,100995.8515625
2022-10-05T03:39:12.341Z,100999.26171875
2022-10-05T03:40:12.095Z,100999.1484375
2022-10-05T03:41:15.192Z,101001.0625
2022-10-05T03:42:11.950Z,101003.9296875
2022-10-05T03:43:12.367Z,101003.44921875
2022-10-05T03:44:11.995Z,101004.96875
2022-10-05T03:45:11.973Z,101003.41015625
2022-10-05T03:46:12.184Z,101007.6171875
2022-10-05T03:47:11.917Z,101005.87890625
2022-10-05T03:48:12.354Z,101006.87890625
2022-10-05T03:49:11.999Z,101008.3203125
2022-10-05T03:50:12.055Z,101011.6796875
2022-10-05T03:51:12.132Z,101008.76171875
2022-10-05T03:52:14.943Z,101010.7265625
2022-10-05T03:53:14.681Z,101010.72265625
2022-10-05T03:54:12.271Z,101015.05078125
2022-10-05T03:55:12.014Z,101019.35546875
2022-10-05T03:56:12.037Z,101015.87890625
2022-10-05T03:57:12.016Z,101019.046875
2022-10-05T03:58:12.273Z,101018.26953125
2022-10-05T03:59:12.027Z,101020.40234375
2022-10-05T04:00:12.037Z,101017.9375
2022-10-05T04:01:12.136Z,101014.89453125
2022-10-05T04:02:12.146Z,101017.23828125
2022-10-05T04:03:18.020Z,101012.80078125
2022-10-05T04:04:11.969Z,101019.03515625
2022-10-05T04:05:11.905Z,101007.94921875
2022-10-05T04:06:11.902Z,101008.8203125
2022-10-05T04:07:11.922Z,101003.8984375
2022-10-05T04:08:12.347Z,101001.984375
2022-10-05T04:09:12.269Z,101002.41796875
2022-10-05T04:10:11.913Z,101002.15234375
2022-10-05T04:11:12.017Z,101001.80859375
2022-10-05T04:12:12.340Z,100999.83203125
2022-10-05T04:13:12.125Z,100995.6796875
2022-10-05T04:14:15.084Z,100997.86328125
2022-10-05T04:15:16.461Z,100994.87890625
2022-10-05T04:16:12.080Z,100998.42578125
2022-10-05T04:17:12.341Z,100996.83984375
2022-10-05T04:18:11.963Z,100995.30859375
2022-10-05T04:19:11.901Z,100996.84765625
2022-10-05T04:20:11.933Z,100997.5546875
2022-10-05T04:21:12.020Z,100997.2109375
2022-10-05T04:22:12.265Z,100998.6328125
2022-10-05T04:23:11.977Z,100997.1640625
2022-10-05T04:24:11.897Z,100999.72265625
2022-10-05T04:25:14.944Z,100998.99609375
2022-10-05T04:26:12.004Z,100993.71875
2022-10-05T04:27:12.342Z,100993.77734375
2022-10-05T04:28:12.036Z,100992.7421875
2022-10-05T04:29:11.916Z,100997.859375
2022-10-05T04:30:11.923Z,100995.890625
2022-10-05T04:31:12.092Z,100996.328125
2022-10-05T04:32:12.036Z,100994.46875
2022-10-05T04:33:12.047Z,100996.78515625
2022-10-05T04:34:11.978Z,100996.5625
2022-10-05T04:35:11.909Z,100998.55078125
2022-10-05T04:36:15.020Z,101000.40625
2022-10-05T04:37:12.270Z,101001.22265625
2022-10-05T04:38:12.003Z,101005.4765625
2022-10-05T04:39:12.351Z,101006.12890625
2022-10-05T04:40:12.081Z,101004.18359375
2022-10-05T04:41:12.023Z,101008.62890625
2022-10-05T04:42:12.277Z,101010.8984375
2022-10-05T04:43:12.065Z,101009.58203125
2022-10-05T04:44:12.128Z,101016.203125
2022-10-05T04:45:11.962Z,101012.76171875
2022-10-05T04:46:11.931Z,101012.640625
2022-10-05T04:47:17.922Z,101014.29296875
2022-10-05T04:48:11.989Z,101015.98828125
2022-10-05T04:49:11.913Z,101016.0390625
2022-10-05T04:50:11.906Z,101020.4765625
2022-10-05T04:51:11.913Z,101018.57421875
2022-10-05T04:52:12.345Z,101024.16015625
2022-10-05T04:53:11.967Z,101022.40625
2022-10-05T04:54:12.344Z,101024.6953125
2022-10-05T04:55:12.117Z,101019.16796875
2022-10-05T04:56:12.086Z,101023.49609375
2022-10-05T04:57:12.346Z,101025.79296875
2022-10-05T04:58:14.941Z,101027.5859375
2022-10-05T04:59:11.974Z,101027.3515625
2022-10-05T05:00:11.975Z,101026.75
2022-10-05T05:01:11.982Z,101026.84765625
2022-10-05T05:02:12.346Z,101025.74609375
2022-10-05T05:03:11.966Z,101027.05859375
2022-10-05T05:04:11.999Z,101027.3828125
2022-10-05T05:05:12.007Z,101026.73046875
2022-10-05T05:06:17.351Z,101028.48046875
2022-10-05T05:07:12.348Z,101027.49609375
2022-10-05T05:08:11.974Z,101028.0546875
2022-10-05T05:09:17.905Z,101029.37890625
2022-10-05T05:10:11.980Z,101027.89453125
2022-10-05T05:11:16.223Z,101027.3046875
2022-10-05T05:12:11.982Z,101023.15234375
2022-10-05T05:13:12.015Z,101026.703125
2022-10-05T05:14:11.920Z,101026.86328125
2022-10-05T05:15:12.017Z,101028.67578125
2022-10-05T05:16:12.038Z,101029.30078125
2022-10-05T05:17:13.302Z,101033.92578125
2022-10-05T05:18:12.093Z,101028.94921875
2022-10-05T05:19:12.399Z,101032.00390625
2022-10-05T05:20:15.016Z,101034.2421875
2022-10-05T05:21:12.030Z,101036.16015625
2022-10-05T05:22:12.015Z,101032.99609375
2022-10-05T05:23:12.099Z,101033.1640625
2022-10-05T05:24:12.267Z,101032.70703125
2022-10-05T05:25:12.060Z,101035.21484375
2022-10-05T05:26:12.043Z,101032.9375
2022-10-05T05:27:12.340Z,101034.7890625
2022-10-05T05:28:12.045Z,101035.62109375
2022-10-05T05:29:12.057Z,101036.984375
2022-10-05T05:30:12.103Z,101040.09375
2022-10-05T05:31:15.019Z,101041.63671875
2022-10-05T05:32:12.113Z,101040.80859375
2022-10-05T05:33:12.017Z,101041.36328125
2022-10-05T05:34:11.970Z,101037.6875
2022-10-05T05:35:12.058Z,101043.2578125
2022-10-05T05:36:12.079Z,101040.53125
2022-10-05T05:37:12.275Z,101040.296875
2022-10-05T05:38:11.909Z,101045.09375
2022-10-05T05:39:12.282Z,101046.41015625
2022-10-05T05:40:11.915Z,101047.671875
2022-10-05T05:41:11.908Z,101049.3671875
2022-10-05T05:42:15.000Z,101047.29296875
2022-10-05T05:43:11.996Z,101044.70703125
2022-10-05T05:44:11.916Z,101048.46484375
2022-10-05T05:45:11.912Z,101049.578125
2022-10-05T05:46:11.942Z,101050.43359375
2022-10-05T05:47:13.056Z,101052.19140625
2022-10-05T05:48:12.021Z,101053.3203125
2022-10-05T05:49:12.002Z,101056.19921875
2022-10-05T05:50:12.116Z,101052.7578125
2022-10-05T05:51:11.987Z,101056.54296875
2022-10-05T05:52:12.338Z,101053.81640625
2022-10-05T05:53:14.917Z,101060.59375
2022-10-05T05:54:12.521Z,101058.52734375
2022-10-05T05:55:12.114Z,101056.765625
2022-10-05T05:56:12.134Z,101058.50390625
2022-10-05T05:57:12.319Z,101058.30078125
2022-10-05T05:58:12.081Z,101056.1171875
2022-10-05T05:59:12.061Z,101054.640625
2022-10-05T06:00:11.936Z,101057.5234375
2022-10-05T06:01:30.557Z,101053.078125
2022-10-05T06:02:12.027Z,101058.16015625
2022-10-05T06:03:12.013Z,101053.8046875
2022-10-05T06:04:14.939Z,101053.640625
2022-10-05T06:05:12.066Z,101055.61328125
2022-10-05T06:06:11.903Z,101051.62109375
2022-10-05T06:07:12.025Z,101049.9609375
2022-10-05T06:08:11.982Z,101046.19140625
2022-10-05T06:09:12.339Z,101045.04296875
2022-10-05T06:10:12.021Z,101045.49609375
2022-10-05T06:11:11.924Z,101048.16015625
2022-10-05T06:12:12.362Z,101046.1171875
2022-10-05T06:13:12.081Z,101043.36328125
2022-10-05T06:14:11.995Z,101043.58203125
2022-10-05T06:15:15.036Z,101048.671875
2022-10-05T06:16:12.015Z,101050.125
2022-10-05T06:17:12.346Z,101055.578125
2022-10-05T06:18:12.057Z,101055.9609375
2022-10-05T06:19:12.021Z,101055.03125
2022-10-05T06:20:12.137Z,101055.6875
2022-10-05T06:21:12.007Z,101054.2265625
2022-10-05T06:22:12.059Z,101053.40625
2022-10-05T06:23:11.997Z,101058.69140625
2022-10-05T06:24:12.543Z,101055.95703125
2022-10-05T06:25:12.025Z,101055.87890625
2022-10-05T06:26:14.918Z,101057.16796875
2022-10-05T06:27:12.309Z,101055.94140625
2022-10-05T06:28:12.095Z,101056.02734375
2022-10-05T06:29:11.897Z,101058.59765625
2022-10-05T06:30:12.016Z,101055.15625
2022-10-05T06:31:12.136Z,101056.65625
2022-10-05T06:32:12.048Z,101059.28125
2022-10-05T06:33:12.009Z,101055.66796875
2022-10-05T06:34:12.097Z,101056.9296875
2022-10-05T06:35:12.006Z,101055.96875
2022-10-05T06:36:11.920Z,101053.8046875
2022-10-05T06:37:17.968Z,101051.50390625
2022-10-05T06:38:11.952Z,101048.51171875
2022-10-05T06:39:12.339Z,101049.8828125
2022-10-05T06:40:12.091Z,101051.19921875
2022-10-05T06:41:11.974Z,101051.25390625
2022-10-05T06:42:12.355Z,101051.61328125
2022-10-05T06:43:12.051Z,101051.65625
2022-10-05T06:44:12.091Z,101055.5390625
2022-10-05T06:45:12.067Z,101051.87109375
2022-10-05T06:46:12.033Z,101049.16015625
2022-10-05T06:47:12.337Z,101054.796875
2022-10-05T06:48:14.957Z,101048.3671875
2022-10-05T06:49:12.144Z,101046.9375
2022-10-05T06:50:11.897Z,101051.31640625
2022-10-05T06:51:11.907Z,101053.63671875
2022-10-05T06:52:12.362Z,101049.328125
2022-10-05T06:53:12.002Z,101055.73046875
2022-10-05T06:54:12.276Z,101052.33203125
2022-10-05T06:55:14.354Z,101058.375
2022-10-05T06:56:11.999Z,101059.2578125
2022-10-05T06:57:12.344Z,101062.05859375
2022-10-05T06:58:12.008Z,101065.95703125
2022-10-05T06:59:15.039Z,101066.359375
2022-10-05T07:00:12.046Z,101068.80859375
2022-10-05T07:01:12.119Z,101066.08984375
2022-10-05T07:02:12.320Z,101060.62890625
2022-10-05T07:03:11.998Z,101065.0546875
2022-10-05T07:04:11.922Z,101067.5234375
2022-10-05T07:05:12.082Z,101063.671875
2022-10-05T07:06:12.056Z,101064.34765625
2022-10-05T07:07:12.270Z,101062.46875
2022-10-05T07:08:11.992Z,101059.04296875
2022-10-05T07:09:12.070Z,101064.0078125
2022-10-05T07:10:14.929Z,101068.64453125
2022-10-05T07:11:11.999Z,101065.8203125
2022-10-05T07:12:12.353Z,101067.7578125
2022-10-05T07:13:11.975Z,101064.44921875
2022-10-05T07:14:11.905Z,101065.17578125
2022-10-05T07:15:11.895Z,101064.34375
2022-10-05T07:16:12.001Z,101067.3828125
2022-10-05T07:17:12.344Z,101070.36328125
2022-10-05T07:18:12.123Z,101072.53125
2022-10-05T07:19:12.050Z,101070.0546875
2022-10-05T07:20:12.026Z,101069.1796875
2022-10-05T07:21:15.066Z,101069.4765625
2022-10-05T07:22:12.269Z,101069.03125
2022-10-05T07:23:12.019Z,101072.77734375
2022-10-05T07:24:12.349Z,101074.890625
2022-10-05T07:25:11.999Z,101073.796875
2022-10-05T07:26:12.025Z,101072.0390625
2022-10-05T07:27:12.263Z,101072.74609375
2022-10-05T07:28:12.121Z,101069.07421875
2022-10-05T07:29:12.079Z,101069.84765625
2022-10-05T07:30:11.992Z,101073.51953125
2022-10-05T07:31:12.048Z,101076.60546875
2022-10-05T07:32:15.451Z,101071.4375
2022-10-05T07:33:12.008Z,101074.6328125
2022-10-05T07:34:12.118Z,101069.91796875
2022-10-05T07:35:11.921Z,101069.58203125
2022-10-05T07:36:11.906Z,101068.29296875
2022-10-05T07:37:12.444Z,101067.49609375
2022-10-05T07:38:12.001Z,101066.1875
2022-10-05T07:39:12.318Z,101064.44140625
2022-10-05T07:40:12.002Z,101063.34765625
2022-10-05T07:41:12.340Z,101062.828125
2022-10-05T07:42:11.974Z,101054.12109375
2022-10-05T07:43:15.038Z,101056
2022-10-05T07:44:13.064Z,101055.328125
2022-10-05T07:45:12.039Z,101053.23828125
2022-10-05T07:46:11.967Z,101059.81640625
2022-10-05T07:47:12.344Z,101055.1640625
2022-10-05T07:48:12.126Z,101053.4609375
2022-10-05T07:49:12.064Z,101056.296875
2022-10-05T07:50:12.035Z,101056.30859375
2022-10-05T07:51:12.083Z,101050.640625
2022-10-05T07:52:12.353Z,101044.84375
2022-10-05T07:53:12.046Z,101047.37890625
2022-10-05T07:54:17.933Z,101052.89453125
2022-10-05T07:55:11.968Z,101056.44140625
2022-10-05T07:56:12.346Z,101051.7734375
2022-10-05T07:57:14.717Z,101053.98046875
2022-10-05T07:58:11.979Z,101049.44921875
2022-10-05T07:59:11.912Z,101057.6953125
2022-10-05T08:00:11.918Z,101062.234375
2022-10-05T08:01:12.350Z,101062.15234375
2022-10-05T08:02:12.186Z,101064.1640625
2022-10-05T08:03:11.966Z,101058.609375
2022-10-05T08:04:11.911Z,101057.53515625
2022-10-05T08:05:14.958Z,101059.6484375
2022-10-05T08:06:12.275Z,101062.83203125
2022-10-05T08:07:12.036Z,101064.0546875
2022-10-05T08:08:14.305Z,101061.3203125
2022-10-05T08:09:12.346Z,101061.67578125
2022-10-05T08:10:12.098Z,101060.12890625
2022-10-05T08:11:12.286Z,101060.7109375
2022-10-05T08:12:11.976Z,101063.37109375
2022-10-05T08:13:12.027Z,101062.22265625
2022-10-05T08:14:11.923Z,101059.4609375
2022-10-05T08:15:11.946Z,101061.5
2022-10-05T08:16:15.385Z,101056.421875
2022-10-05T08:17:12.137Z,101058.36328125
2022-10-05T08:18:11.990Z,101056.43359375
2022-10-05T08:19:11.919Z,101055.24609375
2022-10-05T08:20:11.919Z,101053.33203125
2022-10-05T08:21:12.342Z,101057.76171875
2022-10-05T08:22:11.905Z,101054.76171875
2022-10-05T08:23:11.918Z,101053.1015625
2022-10-05T08:24:12.348Z,101054.76171875
2022-10-05T08:25:12.019Z,101054.02734375
2022-10-05T08:26:12.349Z,101052.109375
2022-10-05T08:27:14.936Z,101050.11328125
2022-10-05T08:28:12.121Z,101049.26171875
2022-10-05T08:29:13.941Z,101047.5859375
2022-10-05T08:30:12.122Z,101050.0625
2022-10-05T08:31:12.358Z,101046.44140625
2022-10-05T08:32:12.077Z,101045.9296875
2022-10-05T08:33:11.920Z,101042.15234375
2022-10-05T08:34:12.004Z,101040.015625
2022-10-05T08:35:12.046Z,101047.453125
2022-10-05T08:36:12.271Z,101043.4140625
2022-10-05T08:37:12.163Z,101046.20703125
2022-10-05T08:38:14.951Z,101046.140625
2022-10-05T08:39:12.288Z,101044.1640625
2022-10-05T08:40:12.079Z,101046.0625
2022-10-05T08:41:12.003Z,101044.80859375
2022-10-05T08:42:11.909Z,101047.00390625
2022-10-05T08:43:11.904Z,101043.87890625
2022-10-05T08:44:12.012Z,101044.32421875
2022-10-05T08:45:11.943Z,101046.15625
2022-10-05T08:46:12.452Z,101041.5078125
2022-10-05T08:47:12.003Z,101037.28125
2022-10-05T08:48:11.905Z,101035.3046875
2022-10-05T08:49:14.998Z,101043.41015625
2022-10-05T08:50:12.121Z,101039.2890625
2022-10-05T08:51:12.339Z,101037.74609375
2022-10-05T08:52:12.120Z,101039.06640625
2022-10-05T08:53:11.909Z,101041.03125
2022-10-05T08:54:12.014Z,101038.03125
2022-10-05T08:55:12.000Z,101038.83984375
2022-10-05T08:56:14.344Z,101034.046875
2022-10-05T08:57:12.111Z,101030.6953125
2022-10-05T08:58:12.078Z,101034.23828125
2022-10-05T08:59:12.039Z,101032.4609375
2022-10-05T09:00:15.061Z,101034.1328125
2022-10-05T09:01:12.327Z,101036.375
2022-10-05T09:02:12.187Z,101032.3046875
2022-10-05T09:03:12.017Z,101035.51171875
2022-10-05T09:04:11.891Z,101036.44140625
2022-10-05T09:05:11.894Z,101032.23046875
2022-10-05T09:06:12.016Z,101031.77734375
2022-10-05T09:07:11.913Z,101033.23046875
2022-10-05T09:08:11.974Z,101029.7109375
2022-10-05T09:09:12.033Z,101031.1328125
2022-10-05T09:10:11.935Z,101029.30859375
2022-10-05T09:11:18.310Z,101029.53125
2022-10-05T09:12:12.023Z,101029.00390625
2022-10-05T09:13:12.062Z,101031.57421875
2022-10-05T09:14:12.045Z,101029.234375
2022-10-05T09:15:25.436Z,101028.6484375
2022-10-05T09:16:12.455Z,101030.32421875
2022-10-05T09:17:11.909Z,101029.55859375
2022-10-05T09:18:12.002Z,101032.99609375
2022-10-05T09:19:12.017Z,101035.41796875
2022-10-05T09:20:12.018Z,101035.42578125
2022-10-05T09:21:12.357Z,101034.140625
2022-10-05T09:22:14.959Z,101031.04296875
2022-10-05T09:23:11.993Z,101032.109375
2022-10-05T09:24:11.965Z,101031.84375
2022-10-05T09:25:12.347Z,101031.0234375
2022-10-05T09:26:12.010Z,101032.22265625
2022-10-05T09:27:12.004Z,101029.2421875
2022-10-05T09:28:11.920Z,101029.25390625
2022-10-05T09:29:11.921Z,101028.1875
2022-10-05T09:30:11.901Z,101025.28125
2022-10-05T09:31:12.515Z,101023.1484375
2022-10-05T09:32:16.226Z,101023.41015625
2022-10-05T09:33:14.977Z,101022.484375
2022-10-05T09:34:11.998Z,101021.70703125
2022-10-05T09:35:12.051Z,101022.2265625
2022-10-05T09:36:12.271Z,101023.83203125
2022-10-05T09:37:12.072Z,101017.75390625
2022-10-05T09:38:11.996Z,101020.35546875
2022-10-05T09:39:11.920Z,101023.9375
2022-10-05T09:40:12.339Z,101019.07421875
2022-10-05T09:41:12.128Z,101022.59765625
2022-10-05T09:42:12.122Z,101020.53515625
2022-10-05T09:43:12.112Z,101027.29296875
2022-10-05T09:44:14.978Z,101028.17578125
2022-10-05T09:45:12.058Z,101024.984375
2022-10-05T09:46:12.445Z,101025.671875
2022-10-05T09:47:12.030Z,101027.51171875
2022-10-05T09:48:12.022Z,101019.05859375
2022-10-05T09:49:12.100Z,101017.41796875
2022-10-05T09:50:11.911Z,101013.125
2022-10-05T09:51:12.346Z,101012.42578125
2022-10-05T09:52:16.431Z,101010.3671875
2022-10-05T09:53:11.897Z,101012.609375
2022-10-05T09:54:12.050Z,101006.79296875
2022-10-05T09:55:17.954Z,101006.7578125
2022-10-05T09:56:12.296Z,101009.94921875
2022-10-05T09:57:12.149Z,101006.6953125
2022-10-05T09:58:12.082Z,101005.046875